createdAt,value
2018-07-17T00:00:31.635Z,84.50
2018-07-17T00:03:00.071Z,84.70
2018-07-17T00:05:28.506Z,85.50
2018-07-17T00:07:56.988Z,86.50
2018-07-17T00:10:25.433Z,89.00
2018-07-17T00:15:22.048Z,90.10
2018-07-17T00:17:50.517Z,90.00
2018-07-17T00:20:18.983Z,90.20
2018-07-17T00:22:47.449Z,91.30
2018-07-17T00:25:15.902Z,92.00
2018-07-17T00:27:44.395Z,92.00
2018-07-17T00:30:12.827Z,92.10
2018-07-17T00:32:41.283Z,92.00
2018-07-17T00:35:09.756Z,92.60
2018-07-17T00:37:38.224Z,92.90
2018-07-17T00:40:06.752Z,92.80
2018-07-17T00:42:35.214Z,92.40
2018-07-17T00:45:03.732Z,92.30
2018-07-17T00:47:32.164Z,92.60
2018-07-17T00:50:00.660Z,92.10
2018-07-17T00:52:29.104Z,91.80
2018-07-17T00:54:57.552Z,91.40
2018-07-17T00:57:26.021Z,91.30
2018-07-17T00:59:54.484Z,91.10
2018-07-17T01:02:28.382Z,92.00
2018-07-17T01:05:02.149Z,92.40
2018-07-17T01:07:35.816Z,92.80
2018-07-17T01:10:09.680Z,93.00
2018-07-17T01:12:37.352Z,93.30
2018-07-17T01:15:11.853Z,93.50
2018-07-17T01:17:40.401Z,93.60
2018-07-17T01:20:08.907Z,93.90
2018-07-17T01:22:37.404Z,93.90
2018-07-17T01:25:06.669Z,94.00
2018-07-17T01:27:35.144Z,94.00
2018-07-17T01:30:03.705Z,93.60
2018-07-17T01:32:32.144Z,93.10
2018-07-17T01:35:00.618Z,92.40
2018-07-17T01:37:29.045Z,92.30
2018-07-17T01:39:57.576Z,91.80
2018-07-17T01:42:26.068Z,91.40
2018-07-17T01:44:54.560Z,91.40
2018-07-17T01:47:23.006Z,91.20
2018-07-17T01:49:51.475Z,91.10
2018-07-17T01:52:19.912Z,91.10
2018-07-17T01:54:48.872Z,91.00
2018-07-17T01:57:17.340Z,90.90
2018-07-17T01:59:45.831Z,90.90
2018-07-17T02:04:42.451Z,91.20
2018-07-17T02:07:10.889Z,91.40
2018-07-17T02:09:39.319Z,91.50
2018-07-17T02:12:07.767Z,91.80
2018-07-17T02:14:36.228Z,91.70
2018-07-17T02:17:05.018Z,91.90
2018-07-17T02:19:33.481Z,92.10
2018-07-17T02:22:01.978Z,92.20
2018-07-17T02:24:30.408Z,92.40
2018-07-17T02:26:58.905Z,92.40
2018-07-17T02:29:27.383Z,92.80
2018-07-17T02:31:55.852Z,92.90
2018-07-17T02:34:24.343Z,93.10
2018-07-17T02:36:52.781Z,93.30
2018-07-17T02:39:21.283Z,93.80
2018-07-17T02:41:50.365Z,94.00
2018-07-17T02:44:18.862Z,94.20
2018-07-17T02:46:47.316Z,94.30
2018-07-17T02:49:15.767Z,94.40
2018-07-17T02:51:44.254Z,94.50
2018-07-17T02:56:40.857Z,94.90
2018-07-17T02:59:09.284Z,95.00
2018-07-17T03:01:37.728Z,95.20
2018-07-17T03:04:06.508Z,95.40
2018-07-17T03:06:34.982Z,95.40
2018-07-17T03:09:03.586Z,95.50
2018-07-17T03:11:32.038Z,95.50
2018-07-17T03:14:00.524Z,95.70
2018-07-17T03:16:28.962Z,95.60
2018-07-17T03:18:57.381Z,95.60
2018-07-17T03:21:25.893Z,95.60
2018-07-17T03:23:54.344Z,95.60
2018-07-17T03:26:22.802Z,95.70
2018-07-17T03:28:51.804Z,95.80
2018-07-17T03:33:48.421Z,96.10
2018-07-17T03:36:16.904Z,96.10
2018-07-17T03:38:45.348Z,96.30
2018-07-17T03:41:13.778Z,96.40
2018-07-17T03:43:42.236Z,96.30
2018-07-17T03:46:10.648Z,96.20
2018-07-17T03:48:39.149Z,96.10
2018-07-17T03:51:07.640Z,96.20
2018-07-17T03:53:36.084Z,96.20
2018-07-17T03:56:04.589Z,96.10
2018-07-17T03:58:33.126Z,96.20
2018-07-17T04:01:01.581Z,96.00
2018-07-17T04:03:30.068Z,96.30
2018-07-17T04:05:58.591Z,96.30
2018-07-17T04:08:27.072Z,96.20
2018-07-17T04:10:55.509Z,96.10
2018-07-17T04:13:23.995Z,96.20
2018-07-17T04:15:52.472Z,96.30
2018-07-17T04:18:20.938Z,96.30
2018-07-17T04:20:49.404Z,96.00
2018-07-17T04:23:17.918Z,95.90
2018-07-17T04:25:46.367Z,95.80
2018-07-17T04:28:15.621Z,95.50
2018-07-17T04:30:44.157Z,95.60
2018-07-17T04:35:40.735Z,95.40
2018-07-17T04:38:09.184Z,95.10
2018-07-17T04:40:37.644Z,95.30
2018-07-17T04:43:06.112Z,95.30
2018-07-17T04:45:34.568Z,95.20
2018-07-17T04:48:03.097Z,95.40
2018-07-17T04:50:31.524Z,95.20
2018-07-17T04:52:59.994Z,95.10
2018-07-17T04:55:31.840Z,95.20
2018-07-17T04:58:00.345Z,95.30
2018-07-17T05:00:28.785Z,95.30
2018-07-17T05:02:57.220Z,95.30
2018-07-17T05:05:25.764Z,95.40
2018-07-17T05:07:54.248Z,95.20
2018-07-17T05:10:22.743Z,95.40
2018-07-17T05:12:51.304Z,95.30
2018-07-17T05:15:19.754Z,95.20
2018-07-17T05:17:48.232Z,95.70
2018-07-17T05:20:16.688Z,95.60
2018-07-17T05:22:45.232Z,95.60
2018-07-17T05:25:13.669Z,95.60
2018-07-17T05:27:42.140Z,95.80
2018-07-17T05:30:10.580Z,96.00
2018-07-17T05:32:39.120Z,95.80
2018-07-17T05:35:07.619Z,95.70
2018-07-17T05:37:36.153Z,95.80
2018-07-17T05:40:05.169Z,95.70
2018-07-17T05:42:33.624Z,95.50
2018-07-17T05:45:02.116Z,95.50
2018-07-17T05:47:31.637Z,95.40
2018-07-17T05:50:00.136Z,95.10
2018-07-17T05:52:28.600Z,95.20
2018-07-17T05:54:57.122Z,95.30
2018-07-17T05:57:25.588Z,94.90
2018-07-17T05:59:54.033Z,94.90
2018-07-17T06:02:22.494Z,94.70
2018-07-17T06:04:50.947Z,94.70
2018-07-17T06:07:19.392Z,94.60
2018-07-17T06:09:47.826Z,94.80
2018-07-17T06:12:16.329Z,94.40
2018-07-17T06:14:44.797Z,94.40
2018-07-17T06:17:13.387Z,94.10
2018-07-17T06:19:41.888Z,93.60
2018-07-17T06:22:10.391Z,92.70
2018-07-17T06:24:38.863Z,91.60
2018-07-17T06:27:07.330Z,90.50
2018-07-17T06:29:35.784Z,88.80
2018-07-17T06:32:04.272Z,87.30
2018-07-17T06:37:01.093Z,81.70
2018-07-17T06:39:29.587Z,81.00
2018-07-17T06:41:58.228Z,79.40
2018-07-17T06:44:26.694Z,78.40
2018-07-17T06:46:55.177Z,75.70
2018-07-17T06:49:23.638Z,74.90
2018-07-17T06:51:52.141Z,73.20
2018-07-17T06:54:20.621Z,72.80
2018-07-17T06:56:49.068Z,71.80
2018-07-17T07:01:45.717Z,70.70
2018-07-17T07:04:14.192Z,71.10
2018-07-17T07:09:11.125Z,70.90
2018-07-17T07:11:39.802Z,70.50
2018-07-17T07:14:08.298Z,70.40
2018-07-17T07:16:36.753Z,71.70
2018-07-17T07:19:05.584Z,71.80
2018-07-17T07:21:34.065Z,71.60
2018-07-17T07:26:30.637Z,72.20
2018-07-17T07:28:59.091Z,72.50
2018-07-17T07:33:55.702Z,73.70
2018-07-17T07:36:24.156Z,74.10
2018-07-17T07:38:52.640Z,73.90
2018-07-17T07:41:21.115Z,73.30
2018-07-17T07:43:49.586Z,73.50
2018-07-17T07:46:18.268Z,73.20
2018-07-17T07:48:46.730Z,71.80
2018-07-17T07:51:15.188Z,71.90
2018-07-17T07:53:43.631Z,71.50
2018-07-17T07:56:12.083Z,70.40
2018-07-17T07:58:40.535Z,70.30
2018-07-17T08:01:08.980Z,68.00
2018-07-17T08:03:37.566Z,67.20
2018-07-17T08:06:06.072Z,67.70
2018-07-17T08:08:34.524Z,69.30
2018-07-17T08:11:02.955Z,68.00
2018-07-17T08:13:31.420Z,67.60
2018-07-17T08:18:28.009Z,65.90
2018-07-17T08:20:56.467Z,65.10
2018-07-17T08:23:24.900Z,65.30
2018-07-17T08:25:53.396Z,64.90
2018-07-17T08:28:21.861Z,64.60
2018-07-17T08:30:50.360Z,64.40
2018-07-17T08:33:18.859Z,65.30
2018-07-17T08:35:47.375Z,64.10
2018-07-17T08:38:15.790Z,63.90
2018-07-17T08:40:44.232Z,63.70
2018-07-17T08:43:12.706Z,64.40
2018-07-17T08:45:41.154Z,64.70
2018-07-17T08:48:09.676Z,64.80
2018-07-17T08:50:38.233Z,65.00
2018-07-17T08:53:06.680Z,65.10
2018-07-17T08:55:35.153Z,64.20
2018-07-17T08:58:03.596Z,64.00
2018-07-17T09:00:32.170Z,64.80
2018-07-17T09:03:00.575Z,64.50
2018-07-17T09:05:29.056Z,64.50
2018-07-17T09:07:57.488Z,65.10
2018-07-17T09:10:25.976Z,65.40
2018-07-17T09:12:54.855Z,65.00
2018-07-17T09:15:23.311Z,65.10
2018-07-17T09:20:19.909Z,65.20
2018-07-17T09:22:48.373Z,65.80
2018-07-17T09:25:16.857Z,63.30
2018-07-17T09:27:45.372Z,63.00
2018-07-17T09:30:13.825Z,63.70
2018-07-17T09:32:42.292Z,63.90
2018-07-17T09:35:10.773Z,64.50
2018-07-17T09:37:39.224Z,63.40
2018-07-17T09:40:07.666Z,63.00
2018-07-17T09:42:36.120Z,62.50
2018-07-17T09:45:04.668Z,62.60
2018-07-17T09:47:33.113Z,62.80
2018-07-17T09:50:01.647Z,63.90
2018-07-17T09:52:30.084Z,64.70
2018-07-17T09:54:58.520Z,63.10
2018-07-17T09:57:26.986Z,62.30
2018-07-17T09:59:55.433Z,62.00
2018-07-17T10:04:57.062Z,62.50
2018-07-17T10:07:25.563Z,61.90
2018-07-17T10:09:54.008Z,61.50
2018-07-17T10:12:23.165Z,61.90
2018-07-17T10:14:51.717Z,61.50
2018-07-17T10:17:20.716Z,61.50
2018-07-17T10:22:17.316Z,62.30
2018-07-17T10:24:45.810Z,62.20
2018-07-17T10:27:14.245Z,61.60
2018-07-17T10:29:42.745Z,61.90
2018-07-17T10:32:11.303Z,62.00
2018-07-17T10:34:39.660Z,62.10
2018-07-17T10:37:08.086Z,62.00
2018-07-17T10:39:36.559Z,61.00
2018-07-17T10:42:05.013Z,60.60
2018-07-17T10:44:33.432Z,61.70
2018-07-17T10:47:01.881Z,61.50
2018-07-17T10:49:30.316Z,61.10
2018-07-17T10:51:58.766Z,62.10
2018-07-17T10:54:27.192Z,60.90
2018-07-17T10:56:55.665Z,61.10
2018-07-17T10:59:24.082Z,61.60
2018-07-17T11:01:52.591Z,60.50
2018-07-17T11:04:21.068Z,60.30
2018-07-17T11:06:49.496Z,61.40
2018-07-17T11:11:46.071Z,62.10
2018-07-17T11:14:14.516Z,60.10
2018-07-17T11:16:42.932Z,61.30
2018-07-17T11:19:11.382Z,60.50
2018-07-17T11:24:07.999Z,60.50
2018-07-17T11:26:36.425Z,60.00
2018-07-17T11:29:04.883Z,59.70
2018-07-17T11:34:01.476Z,59.30
2018-07-17T11:36:29.941Z,59.80
2018-07-17T11:38:58.359Z,59.40
2018-07-17T11:41:26.793Z,59.30
2018-07-17T11:43:55.214Z,59.70
2018-07-17T11:46:23.656Z,59.10
2018-07-17T11:48:52.086Z,59.30
2018-07-17T11:51:20.557Z,58.40
2018-07-17T11:53:48.972Z,58.70
2018-07-17T11:56:17.396Z,58.90
2018-07-17T11:58:45.852Z,58.20
2018-07-17T12:01:14.303Z,58.10
2018-07-17T12:06:10.881Z,57.30
2018-07-17T12:08:39.333Z,57.30
2018-07-17T12:13:35.978Z,57.40
2018-07-17T12:16:04.432Z,56.90
2018-07-17T12:18:32.865Z,56.60
2018-07-17T12:21:01.316Z,56.40
2018-07-17T12:25:57.873Z,55.50
2018-07-17T12:30:54.439Z,56.20
2018-07-17T12:33:22.917Z,56.10
2018-07-17T12:35:51.343Z,56.70
2018-07-17T12:38:19.851Z,56.00
2018-07-17T12:40:48.284Z,56.40
2018-07-17T12:43:16.773Z,56.90
2018-07-17T12:45:45.364Z,57.40
2018-07-17T12:48:14.067Z,57.30
2018-07-17T12:50:43.475Z,57.70
2018-07-17T12:53:12.493Z,58.10
2018-07-17T12:55:41.252Z,57.80
2018-07-17T12:58:09.706Z,57.60
2018-07-17T13:00:38.319Z,57.70
2018-07-17T13:03:07.240Z,58.60
2018-07-17T13:05:35.696Z,58.30
2018-07-17T13:10:32.284Z,58.50
2018-07-17T13:13:00.749Z,58.60
2018-07-17T13:15:29.308Z,58.10
2018-07-17T13:17:57.788Z,58.50
2018-07-17T13:20:26.349Z,58.20
2018-07-17T13:22:54.818Z,58.80
2018-07-17T13:25:23.264Z,58.80
2018-07-17T13:27:52.150Z,59.50
2018-07-17T13:30:20.708Z,59.70
2018-07-17T13:32:49.166Z,59.40
2018-07-17T13:35:17.601Z,57.90
2018-07-17T13:37:46.060Z,57.60
2018-07-17T13:40:14.484Z,57.90
2018-07-17T13:42:43.858Z,58.00
2018-07-17T13:45:12.305Z,58.50
2018-07-17T13:47:40.759Z,57.80
2018-07-17T13:50:09.249Z,58.30
2018-07-17T13:52:37.672Z,58.40
2018-07-17T13:55:06.203Z,59.30
2018-07-17T13:57:34.657Z,59.60
2018-07-17T14:00:03.200Z,59.10
2018-07-17T14:02:31.649Z,58.70
2018-07-17T14:07:32.107Z,59.80
2018-07-17T14:10:00.570Z,60.00
2018-07-17T14:12:33.079Z,60.00
2018-07-17T14:15:01.512Z,60.80
2018-07-17T14:17:29.971Z,60.60
2018-07-17T14:20:04.412Z,60.50
2018-07-17T14:22:32.865Z,61.60
2018-07-17T14:25:01.349Z,61.50
2018-07-17T14:27:29.761Z,61.70
2018-07-17T14:29:59.260Z,61.50
2018-07-17T14:32:27.730Z,61.00
2018-07-17T14:34:56.215Z,61.00
2018-07-17T14:37:24.664Z,62.30
2018-07-17T14:39:53.113Z,61.40
2018-07-17T14:42:21.600Z,61.10
2018-07-17T14:44:50.045Z,61.60
2018-07-17T14:47:18.504Z,62.60
2018-07-17T14:49:46.957Z,62.70
2018-07-17T14:52:15.401Z,62.10
2018-07-17T14:54:43.825Z,62.30
2018-07-17T14:57:13.166Z,62.50
2018-07-17T14:59:41.580Z,63.10
2018-07-17T15:02:10.425Z,62.50
2018-07-17T15:04:38.873Z,61.70
2018-07-17T15:07:07.348Z,61.90
2018-07-17T15:09:35.822Z,61.60
2018-07-17T15:12:04.276Z,61.70
2018-07-17T15:14:32.752Z,62.00
2018-07-17T15:17:01.184Z,62.10
2018-07-17T15:19:29.648Z,62.70
2018-07-17T15:21:58.080Z,63.50
2018-07-17T15:24:26.504Z,63.40
2018-07-17T15:26:55.045Z,61.80
2018-07-17T15:29:23.485Z,60.80
2018-07-17T15:31:51.940Z,61.30
2018-07-17T15:36:48.573Z,61.20
2018-07-17T15:39:16.983Z,60.10
2018-07-17T15:41:45.440Z,60.10
2018-07-17T15:44:13.997Z,60.20
2018-07-17T15:46:42.453Z,60.80
2018-07-17T15:49:10.896Z,60.70
2018-07-17T15:51:39.401Z,60.50
2018-07-17T15:56:35.959Z,59.40
2018-07-17T15:59:04.439Z,59.60
2018-07-17T16:01:32.942Z,59.90
2018-07-17T16:04:01.389Z,60.30
2018-07-17T16:08:58.071Z,60.00
2018-07-17T16:11:26.545Z,61.00
2018-07-17T16:13:55.569Z,62.30
2018-07-17T16:18:52.890Z,61.70
2018-07-17T16:23:49.448Z,63.10
2018-07-17T16:26:17.904Z,63.90
2018-07-17T16:28:46.344Z,64.10
2018-07-17T16:31:14.811Z,65.10
